createdAt,value
2023-01-29T00:00:27.558Z,1024.2
2023-01-29T00:16:01.838Z,1023.9
2023-01-29T00:31:36.252Z,1023.9
2023-01-29T00:47:11.257Z,1023.9
2023-01-29T01:02:45.541Z,1024
2023-01-29T01:18:19.806Z,1023.9
2023-01-29T01:33:54.101Z,1023.8
2023-01-29T01:49:28.393Z,1023.6
2023-01-29T02:05:02.666Z,1023.5
2023-01-29T02:20:37.331Z,1023.6
2023-01-29T02:36:11.608Z,1023.8
2023-01-29T02:51:45.946Z,1023.6
2023-01-29T03:07:20.241Z,1023.9
2023-01-29T03:22:54.718Z,1024
2023-01-29T03:38:28.986Z,1023.8
2023-01-29T03:54:03.209Z,1023.7
2023-01-29T04:09:37.069Z,1023.7
2023-01-29T04:25:11.194Z,1023.7
2023-01-29T04:40:45.065Z,1023.5
2023-01-29T04:56:19.183Z,1023.2
2023-01-29T05:11:53.045Z,1023.1
2023-01-29T05:27:26.921Z,1023
2023-01-29T05:43:00.263Z,1023
2023-01-29T05:58:34.397Z,1022.8
2023-01-29T06:14:08.001Z,1022.8
2023-01-29T06:29:41.869Z,1022.8
2023-01-29T06:45:16.029Z,1023
2023-01-29T07:00:50.445Z,1023.3
2023-01-29T07:16:44.899Z,1023.6
2023-01-29T07:32:18.918Z,1023.7
2023-01-29T07:47:53.071Z,1024
2023-01-29T08:03:27.255Z,1023.6
2023-01-29T08:19:01.148Z,1023.4
2023-01-29T08:34:35.306Z,1023.1
2023-01-29T08:50:09.186Z,1023.1
2023-01-29T09:05:43.439Z,1023.5
2023-01-29T09:21:17.330Z,1023.3
2023-01-29T09:36:51.223Z,1023.1
2023-01-29T09:52:25.159Z,1022.8
2023-01-29T10:07:58.799Z,1022.6
2023-01-29T10:23:34.320Z,1022.2
2023-01-29T10:39:08.637Z,1021.8
2023-01-29T10:54:42.839Z,1021.5
2023-01-29T11:10:17.034Z,1021.2
2023-01-29T11:25:51.367Z,1020.9
2023-01-29T11:41:25.508Z,1020.7
2023-01-29T11:56:59.720Z,1020.3
2023-01-29T12:12:33.654Z,1020.2
2023-01-29T12:28:09.529Z,1019.9
2023-01-29T12:43:43.273Z,1019.3
2023-01-29T12:59:17.553Z,1019.2
2023-01-29T13:14:51.498Z,1019.3
2023-01-29T13:30:25.206Z,1019.2
2023-01-29T13:45:59.290Z,1019
2023-01-29T14:01:33.592Z,1018.9
2023-01-29T14:17:07.825Z,1018.7
2023-01-29T14:32:41.844Z,1018.7
2023-01-29T14:48:15.799Z,1018.8
2023-01-29T15:03:49.826Z,1019.1
2023-01-29T15:19:23.791Z,1019
2023-01-29T15:34:58.053Z,1018.9
2023-01-29T15:50:32.302Z,1018.7
2023-01-29T16:06:06.230Z,1018.9
2023-01-29T16:21:40.421Z,1018.9
2023-01-29T16:37:14.390Z,1018.9
2023-01-29T16:52:48.601Z,1018.9
2023-01-29T17:08:22.508Z,1019.1
2023-01-29T17:23:56.676Z,1019.2
2023-01-29T17:39:30.610Z,1019.3
2023-01-29T17:55:05.024Z,1019.3
2023-01-29T18:10:39.197Z,1019
2023-01-29T18:26:13.210Z,1018.8
2023-01-29T18:41:47.751Z,1018.4
2023-01-29T18:58:25.362Z,1018.2
2023-01-29T19:14:03.616Z,1017.8
2023-01-29T19:29:37.500Z,1017.7
2023-01-29T19:45:11.110Z,1017.8
2023-01-29T20:00:59.109Z,1017.8
2023-01-29T20:16:33.373Z,1017.6
2023-01-29T20:32:07.631Z,1017.6
2023-01-29T20:47:41.836Z,1017.5
2023-01-29T21:03:15.991Z,1017.2
2023-01-29T21:18:49.939Z,1016.9
2023-01-29T21:34:23.832Z,1016.5
2023-01-29T21:50:00.550Z,1015.9
2023-01-29T22:05:34.459Z,1015.3
2023-01-29T22:21:08.331Z,1015.1
2023-01-29T22:36:44.268Z,1014.6
2023-01-29T22:52:18.387Z,1014.5
2023-01-29T23:07:52.538Z,1014
2023-01-29T23:23:26.431Z,1014
2023-01-29T23:39:00.652Z,1013.9
2023-01-29T23:54:34.825Z,1013.7
